Time;durP1;ratioP1;P1;durP2;ratioP2;P2;SDS_P1;SDS_P2;PMS_P1;PMS_P2;Temp;Humidity;BMP_temperature;BMP_pressure;BME280_temperature;BME280_humidity;BME280_pressure;Samples;Min_cycle;Max_cycle;Signal;HPM_P1;HPM_P2
2021/07/03 00:02:25;;;;;;;13.18;8.10;;;16.00;99.90;;;;;;6620256;89;20272;-77
2021/07/03 00:12:25;;;;;;;11.27;8.13;;;15.90;99.90;;;;;;6612618;89;20239;-77
2021/07/03 00:22:26;;;;;;;11.88;7.90;;;15.60;99.90;;;;;;6597799;90;20386;-77
2021/07/03 00:32:26;;;;;;;16.95;8.25;;;15.60;99.90;;;;;;6600368;89;20893;-77
2021/07/03 00:42:27;;;;;;;13.57;8.70;;;15.40;99.90;;;;;;6613958;89;20338;-77
2021/07/03 00:52:27;;;;;;;13.27;7.97;;;15.20;99.90;;;;;;6613768;89;20202;-77
2021/07/03 01:02:28;;;;;;;12.30;8.68;;;15.10;99.90;;;;;;6603773;89;20764;-76
2021/07/03 01:12:28;;;;;;;13.45;8.45;;;15.50;99.90;;;;;;6611545;89;20211;-77
2021/07/03 01:22:29;;;;;;;13.25;8.65;;;15.30;99.90;;;;;;6611467;89;20193;-76
2021/07/03 01:32:30;;;;;;;16.62;9.30;;;15.20;99.90;;;;;;6601922;89;20206;-77
2021/07/03 01:42:30;;;;;;;13.68;8.93;;;15.00;99.90;;;;;;6597071;89;20194;-77
2021/07/03 01:52:32;;;;;;;18.60;10.00;;;14.80;99.90;;;;;;6596953;89;20202;-77
2021/07/03 02:02:33;;;;;;;13.27;8.68;;;14.90;99.90;;;;;;6596402;89;20258;-77
2021/07/03 02:12:34;;;;;;;15.35;9.38;;;14.90;99.90;;;;;;6596189;89;20214;-77
2021/07/03 02:22:34;;;;;;;14.23;9.32;;;14.70;99.90;;;;;;6607158;89;20613;-76
2021/07/03 02:32:35;;;;;;;13.80;9.02;;;14.60;99.90;;;;;;6614797;89;20664;-77
2021/07/03 02:42:36;;;;;;;15.98;9.45;;;14.60;99.90;;;;;;6614085;89;20785;-77
2021/07/03 02:52:37;;;;;;;14.35;8.88;;;14.30;99.90;;;;;;6614836;89;20624;-77
2021/07/03 03:02:38;;;;;;;13.63;8.77;;;14.40;99.90;;;;;;6613890;89;20323;-77
2021/07/03 03:12:39;;;;;;;17.12;9.82;;;14.30;99.90;;;;;;6613179;89;20215;-76
2021/07/03 03:22:41;;;;;;;13.82;9.20;;;14.20;99.90;;;;;;6609561;89;20369;-76
2021/07/03 03:32:42;;;;;;;18.05;9.77;;;14.10;99.90;;;;;;6601804;89;20337;-76
2021/07/03 03:42:43;;;;;;;14.53;9.73;;;14.20;99.90;;;;;;6599623;89;20253;-77
2021/07/03 03:52:43;;;;;;;17.12;10.18;;;14.10;99.90;;;;;;6599728;89;20518;-77
2021/07/03 04:02:45;;;;;;;20.08;10.63;;;14.10;99.90;;;;;;6599744;89;20418;-77
2021/07/03 04:12:45;;;;;;;14.82;10.20;;;14.10;99.90;;;;;;6599512;89;20225;-76
2021/07/03 04:22:46;;;;;;;19.73;11.80;;;14.20;99.90;;;;;;6611092;89;20670;-76
2021/07/03 04:32:46;;;;;;;20.73;12.88;;;14.60;99.90;;;;;;6613117;89;20209;-76
2021/07/03 04:42:47;;;;;;;20.60;12.93;;;14.80;99.90;;;;;;6613483;89;20193;-76
2021/07/03 04:52:48;;;;;;;20.10;12.75;;;14.70;99.90;;;;;;6615870;89;20272;-76
2021/07/03 05:02:49;;;;;;;18.80;12.75;;;14.90;99.90;;;;;;6617040;89;20349;-76
2021/07/03 05:12:49;;;;;;;20.00;12.55;;;14.90;99.90;;;;;;6613283;89;20194;-77
2021/07/03 05:22:50;;;;;;;19.30;12.32;;;14.90;99.90;;;;;;6609574;89;20662;-77
2021/07/03 05:32:50;;;;;;;20.83;12.25;;;15.20;99.90;;;;;;6615712;89;20295;-76
2021/07/03 05:42:51;;;;;;;18.43;11.17;;;15.40;99.90;;;;;;6615935;89;21110;-77
2021/07/03 05:52:52;;;;;;;19.00;11.52;;;15.80;99.90;;;;;;6616721;89;20542;-77
2021/07/03 06:02:53;;;;;;;17.10;10.13;;;16.10;99.90;;;;;;6616141;89;20636;-77
2021/07/03 06:12:53;;;;;;;16.63;10.07;;;16.80;99.90;;;;;;6615303;89;20399;-77
2021/07/03 06:22:54;;;;;;;16.75;9.30;;;17.80;99.90;;;;;;6603644;89;20272;-77
2021/07/03 06:32:54;;;;;;;11.10;7.78;;;18.60;99.90;;;;;;6598230;89;20264;-78
2021/07/03 06:42:55;;;;;;;12.50;7.10;;;19.40;99.90;;;;;;6597313;89;20340;-78
2021/07/03 06:52:55;;;;;;;9.95;6.72;;;20.10;99.90;;;;;;6597598;89;20223;-77
2021/07/03 07:02:56;;;;;;;8.43;5.78;;;20.50;99.90;;;;;;6598642;89;20203;-77
2021/07/03 07:12:57;;;;;;;7.93;5.53;;;21.10;99.90;;;;;;6600591;89;20328;-78
2021/07/03 07:22:57;;;;;;;9.90;5.10;;;22.40;99.90;;;;;;6605124;89;20206;-76
2021/07/03 07:32:58;;;;;;;6.80;4.87;;;22.20;99.90;;;;;;6599003;89;20205;-77
2021/07/03 07:42:58;;;;;;;7.68;4.87;;;22.40;99.90;;;;;;6598023;89;20828;-77
2021/07/03 07:52:59;;;;;;;8.57;5.18;;;23.00;99.90;;;;;;6597647;89;20414;-77
2021/07/03 08:02:59;;;;;;;7.90;5.55;;;23.10;99.90;;;;;;6596751;89;20394;-77
2021/07/03 08:13:00;;;;;;;9.80;5.30;;;24.20;99.90;;;;;;6596618;89;20373;-78
2021/07/03 08:23:01;;;;;;;8.20;5.20;;;24.80;99.90;;;;;;6601769;89;20275;-77
2021/07/03 08:33:02;;;;;;;7.60;4.75;;;25.50;99.90;;;;;;6597293;89;20758;-78
2021/07/03 08:43:03;;;;;;;7.40;5.03;;;26.00;99.90;;;;;;6597030;89;20669;-77
2021/07/03 08:53:07;;;;;;;7.43;4.40;;;26.50;99.90;;;;;;6597277;89;20211;-77
2021/07/03 09:03:15;;;;;;;6.15;4.55;;;27.00;99.90;;;;;;6598020;89;20186;-77
2021/07/03 09:13:18;;;;;;;5.45;4.40;;;27.80;99.30;;;;;;6593449;89;20232;-77
2021/07/03 09:23:21;;;;;;;5.00;4.03;;;27.60;97.30;;;;;;6596466;89;20650;-78
2021/07/03 09:33:37;;;;;;;5.53;4.10;;;28.60;96.10;;;;;;6596656;89;20330;-78
2021/07/03 09:43:50;;;;;;;6.70;3.58;;;27.70;95.90;;;;;;6597139;89;20206;-78
2021/07/03 09:53:51;;;;;;;5.28;3.80;;;29.40;93.60;;;;;;6598489;89;20201;-79
2021/07/03 10:03:52;;;;;;;6.83;3.90;;;30.30;91.50;;;;;;6597892;89;20240;-78
2021/07/03 10:14:01;;;;;;;6.77;4.30;;;30.50;90.80;;;;;;6598450;89;20642;-78
2021/07/03 10:24:01;;;;;;;6.03;4.40;;;30.40;86.10;;;;;;6597566;90;20186;-79
2021/07/03 10:34:02;;;;;;;7.57;4.07;;;29.10;90.20;;;;;;6601744;90;20188;-79
2021/07/03 10:44:13;;;;;;;5.50;4.13;;;30.30;90.00;;;;;;6598171;89;20198;-79
2021/07/03 10:54:20;;;;;;;5.97;3.83;;;32.50;85.10;;;;;;6601879;90;20193;-79
2021/07/03 11:04:22;;;;;;;6.43;4.03;;;32.10;82.40;;;;;;6600904;89;20262;-78
2021/07/03 11:14:23;;;;;;;4.78;3.10;;;32.10;80.10;;;;;;6599830;90;20193;-78
2021/07/03 11:24:24;;;;;;;4.10;3.45;;;32.90;79.70;;;;;;6600547;90;20237;-78
2021/07/03 11:34:25;;;;;;;5.85;3.50;;;34.20;75.80;;;;;;6599471;90;20247;-78
2021/07/03 11:44:28;;;;;;;3.90;3.25;;;33.30;72.30;;;;;;6598135;89;20320;-77
2021/07/03 11:54:29;;;;;;;6.47;3.50;;;33.10;74.10;;;;;;6598183;90;20178;-77
2021/07/03 12:04:29;;;;;;;4.50;3.17;;;32.90;73.80;;;;;;6598334;90;20206;-79
2021/07/03 12:14:30;;;;;;;5.30;3.20;;;34.70;69.70;;;;;;6601748;90;20316;-79
2021/07/03 12:24:31;;;;;;;5.50;3.50;;;35.20;68.80;;;;;;6596794;90;20331;-76
2021/07/03 12:34:35;;;;;;;7.93;3.10;;;34.70;67.30;;;;;;6597608;90;20241;-78
2021/07/03 12:44:46;;;;;;;3.60;3.00;;;33.30;70.20;;;;;;6597730;90;20197;-76
2021/07/03 12:54:56;;;;;;;3.93;3.27;;;34.30;66.20;;;;;;6596350;90;20211;-78
2021/07/03 13:04:56;;;;;;;5.22;3.40;;;33.00;68.00;;;;;;6598740;90;20206;-78
2021/07/03 13:14:57;;;;;;;4.47;3.08;;;33.70;67.90;;;;;;6601929;89;20603;-79
2021/07/03 13:24:57;;;;;;;6.90;3.47;;;33.10;67.60;;;;;;6597088;90;20207;-78
2021/07/03 13:34:58;;;;;;;5.40;3.40;;;32.20;69.20;;;;;;6597672;89;20185;-78
2021/07/03 13:44:58;;;;;;;5.55;3.62;;;31.80;70.70;;;;;;6597080;90;20308;-77
2021/07/03 13:54:59;;;;;;;4.40;3.30;;;30.60;72.10;;;;;;6596743;90;20221;-77
2021/07/03 14:04:59;;;;;;;4.20;3.80;;;30.40;72.10;;;;;;6596202;90;20678;-78
2021/07/03 14:15:05;;;;;;;4.03;3.30;;;31.10;71.40;;;;;;6596893;90;21032;-78
2021/07/03 14:25:07;;;;;;;4.68;3.67;;;31.10;72.10;;;;;;6595615;90;20706;-78
2021/07/03 14:35:08;;;;;;;4.78;3.90;;;31.30;72.10;;;;;;6597836;90;20218;-78
2021/07/03 14:45:09;;;;;;;4.70;3.80;;;31.00;71.00;;;;;;6595829;90;20212;-78
2021/07/03 14:55:11;;;;;;;5.65;3.33;;;29.70;73.90;;;;;;6595399;90;20205;-78
2021/07/03 15:05:12;;;;;;;4.85;3.70;;;29.00;73.30;;;;;;6594937;90;20358;-77
2021/07/03 15:15:53;;;;;;;6.57;3.70;;;27.90;79.90;;;;;;6644898;77;20632;-81
2021/07/03 15:25:54;;;;;;;5.65;4.03;;;26.00;89.80;;;;;;6628789;89;20764;-80
2021/07/03 15:35:55;;;;;;;6.22;3.72;;;25.10;94.30;;;;;;6626228;89;20281;-80
2021/07/03 15:45:55;;;;;;;7.22;4.85;;;24.40;97.90;;;;;;6626875;89;20181;-79
2021/07/03 15:55:56;;;;;;;7.55;4.90;;;23.60;99.90;;;;;;6638400;89;20284;-80
2021/07/03 16:05:56;;;;;;;9.02;5.47;;;23.10;99.90;;;;;;6624218;89;20211;-79
2021/07/03 16:15:57;;;;;;;11.25;6.35;;;22.80;99.90;;;;;;6623968;89;20252;-79
2021/07/03 16:25:57;;;;;;;10.98;6.47;;;22.20;99.90;;;;;;6623671;89;20290;-80
2021/07/03 16:35:58;;;;;;;10.50;6.37;;;22.20;99.90;;;;;;6621778;89;20289;-79
2021/07/03 16:45:58;;;;;;;35.92;18.98;;;22.40;99.90;;;;;;6624226;89;20689;-78
2021/07/03 16:55:59;;;;;;;10.88;6.62;;;22.90;99.90;;;;;;6624631;89;20206;-78
2021/07/03 17:06:00;;;;;;;11.73;6.97;;;23.00;99.90;;;;;;6624247;89;20208;-79
2021/07/03 17:16:00;;;;;;;8.40;5.80;;;22.90;99.90;;;;;;6621804;89;20223;-79
2021/07/03 17:26:01;;;;;;;7.72;5.43;;;22.90;99.90;;;;;;6620697;89;21017;-80
2021/07/03 17:36:01;;;;;;;9.43;5.93;;;22.80;99.90;;;;;;6624688;89;20377;-78
2021/07/03 17:46:02;;;;;;;8.53;5.60;;;22.60;99.90;;;;;;6620479;89;20201;-79
2021/07/03 17:56:03;;;;;;;9.02;6.30;;;22.20;99.90;;;;;;6623049;89;20205;-79
2021/07/03 18:06:04;;;;;;;8.85;5.78;;;22.20;99.90;;;;;;6623551;89;20222;-79
2021/07/03 18:16:04;;;;;;;10.40;5.70;;;22.20;99.90;;;;;;6623977;89;20209;-79
2021/07/03 18:26:05;;;;;;;8.33;5.33;;;22.20;99.90;;;;;;6625015;88;20189;-79
2021/07/03 18:36:06;;;;;;;6.87;4.82;;;22.10;99.90;;;;;;6624857;89;20501;-80
2021/07/03 18:46:06;;;;;;;6.32;4.40;;;22.20;99.90;;;;;;6623851;89;20400;-79
2021/07/03 18:56:07;;;;;;;5.97;4.65;;;22.20;99.90;;;;;;6625675;89;20613;-79
2021/07/03 19:06:08;;;;;;;6.55;4.55;;;22.30;99.90;;;;;;6626740;89;20188;-79
2021/07/03 19:16:10;;;;;;;4.80;3.85;;;22.10;99.90;;;;;;6625935;89;20686;-79
2021/07/03 19:26:11;;;;;;;7.62;4.25;;;21.90;99.90;;;;;;6626350;89;20724;-81
2021/07/03 19:36:12;;;;;;;5.95;4.15;;;22.00;99.90;;;;;;6626452;89;20273;-80
2021/07/03 19:46:12;;;;;;;6.97;4.50;;;21.80;99.90;;;;;;6626740;89;20188;-79
2021/07/03 19:56:13;;;;;;;6.37;4.97;;;21.70;99.90;;;;;;6625468;89;20197;-79
2021/07/03 20:06:13;;;;;;;6.20;4.18;;;21.50;99.90;;;;;;6622448;89;20201;-79
2021/07/03 20:16:14;;;;;;;8.40;5.30;;;21.60;99.90;;;;;;6625524;89;20324;-80
2021/07/03 20:26:18;;;;;;;8.07;5.30;;;21.10;99.90;;;;;;6625844;89;20208;-78
2021/07/03 20:36:19;;;;;;;6.95;5.37;;;21.10;99.90;;;;;;6626709;89;20186;-79
2021/07/03 20:46:19;;;;;;;10.23;7.10;;;20.90;99.90;;;;;;6626541;89;20340;-78
2021/07/03 20:56:20;;;;;;;9.60;7.03;;;20.80;99.90;;;;;;6623196;89;20846;-78
2021/07/03 21:06:20;;;;;;;8.80;6.37;;;20.60;99.90;;;;;;6630743;77;20246;-76
2021/07/03 21:16:22;;;;;;;12.35;6.57;;;20.00;99.90;;;;;;6687866;88;20212;-76
2021/07/03 21:26:22;;;;;;;9.95;6.55;;;19.90;99.90;;;;;;6652060;88;20194;-76
2021/07/03 21:36:23;;;;;;;10.55;6.43;;;20.00;99.90;;;;;;6615648;89;20194;-75
2021/07/03 21:46:24;;;;;;;10.55;7.20;;;20.00;99.90;;;;;;6627189;89;20221;-76
2021/07/03 21:56:24;;;;;;;7.93;6.37;;;20.00;99.90;;;;;;6628851;89;20191;-76
2021/07/03 22:06:25;;;;;;;8.20;6.00;;;20.10;99.90;;;;;;6628457;89;20201;-76
2021/07/03 22:16:25;;;;;;;8.93;6.45;;;20.00;99.90;;;;;;6628309;89;20400;-76
2021/07/03 22:26:26;;;;;;;10.77;6.22;;;20.10;99.90;;;;;;6628082;89;20702;-76
2021/07/03 22:36:26;;;;;;;8.88;6.25;;;19.90;99.90;;;;;;6628135;89;20210;-76
2021/07/03 22:46:28;;;;;;;11.02;6.47;;;19.80;99.90;;;;;;6635704;89;20188;-76
2021/07/03 22:56:29;;;;;;;7.12;5.70;;;19.90;99.90;;;;;;6630933;89;20263;-77
2021/07/03 23:06:32;;;;;;;8.73;6.20;;;20.00;99.90;;;;;;6628962;89;20204;-76
2021/07/03 23:16:32;;;;;;;10.57;6.32;;;20.10;99.90;;;;;;6628166;88;20410;-76
2021/07/03 23:26:35;;;;;;;12.55;6.60;;;19.90;99.90;;;;;;6627497;89;20655;-76
2021/07/03 23:36:36;;;;;;;9.98;6.85;;;19.90;99.90;;;;;;6629397;88;20322;-76
2021/07/03 23:46:36;;;;;;;10.85;7.90;;;19.90;99.90;;;;;;6630872;89;20394;-76
2021/07/03 23:56:37;;;;;;;11.70;7.55;;;19.80;99.90;;;;;;6630460;89;20253;-76
